Time;durP1;ratioP1;P1;durP2;ratioP2;P2;SDS_P1;SDS_P2;PMS_P1;PMS_P2;Temp;Humidity;BMP_temperature;BMP_pressure;BME280_temperature;BME280_humidity;BME280_pressure;Samples;Min_cycle;Max_cycle;Signal;HPM_P1;HPM_P2
2021/03/16 00:02:10;;;;;;;18.60;6.80;;;;;;;7.53;74.30;99112.83;125647;1098;104235;-80
2021/03/16 00:04:42;;;;;;;15.20;6.07;;;;;;;7.50;74.46;99111.88;125626;1099;106023;-78
2021/03/16 00:07:22;;;;;;;21.40;7.00;;;;;;;7.49;74.55;99110.09;125738;1099;104207;-79
2021/03/16 00:09:51;;;;;;;17.80;6.10;;;;;;;7.53;74.16;99107.61;125628;1099;104210;-78
2021/03/16 00:12:19;;;;;;;18.40;5.73;;;;;;;7.55;74.45;99108.52;125630;1099;104208;-79
2021/03/16 00:14:48;;;;;;;19.90;6.30;;;;;;;7.58;74.23;99102.50;125606;1099;104250;-79
2021/03/16 00:17:17;;;;;;;19.33;6.23;;;;;;;7.59;74.02;99108.59;125641;1096;104165;-79
2021/03/16 00:19:47;;;;;;;21.10;6.40;;;;;;;7.60;73.95;99110.38;125666;1099;104207;-79
2021/03/16 00:22:16;;;;;;;18.53;6.10;;;;;;;7.61;74.26;99102.58;125691;1097;104181;-79
2021/03/16 00:24:45;;;;;;;21.47;6.83;;;;;;;7.60;74.19;99103.41;125594;1099;104329;-79
2021/03/16 00:27:13;;;;;;;21.43;7.07;;;;;;;7.61;74.36;99104.32;125654;1099;104166;-79
2021/03/16 00:29:42;;;;;;;77.47;22.07;;;;;;;7.62;74.17;99104.36;125679;1099;104159;-79
2021/03/16 00:32:11;;;;;;;48.60;14.00;;;;;;;7.61;73.99;99102.58;125597;1099;104331;-79
2021/03/16 00:34:40;;;;;;;54.43;16.00;;;;;;;7.62;73.86;99103.45;125610;1099;104181;-79
2021/03/16 00:37:09;;;;;;;44.40;13.47;;;;;;;7.63;74.14;99105.23;125588;1099;104165;-79
2021/03/16 00:39:38;;;;;;;50.87;14.67;;;;;;;7.64;74.40;99096.56;125560;1099;104422;-79
2021/03/16 00:42:07;;;;;;;41.57;12.27;;;;;;;7.66;74.00;99095.73;125587;1099;104303;-79
2021/03/16 00:44:36;;;;;;;37.87;10.63;;;;;;;7.71;74.05;99093.23;125495;1099;104296;-79
2021/03/16 00:47:05;;;;;;;36.60;12.03;;;;;;;7.73;73.89;99083.74;125571;1099;104200;-79
2021/03/16 00:49:34;;;;;;;32.43;9.93;;;;;;;7.70;74.19;99081.92;125589;1098;104169;-79
2021/03/16 00:52:03;;;;;;;22.77;7.63;;;;;;;7.75;74.31;99087.27;125525;1099;104441;-79
2021/03/16 00:54:33;;;;;;;29.43;8.77;;;;;;;7.74;73.88;99086.39;125562;1099;104175;-79
2021/03/16 00:57:02;;;;;;;51.73;16.67;;;;;;;7.67;74.04;99086.20;125570;1099;112070;-78
2021/03/16 00:59:31;;;;;;;34.90;11.63;;;;;;;7.65;74.01;99090.48;125559;1099;104149;-79
2021/03/16 01:02:00;;;;;;;39.23;11.43;;;;;;;7.59;73.78;99091.23;125590;1099;104255;-78
2021/03/16 01:04:29;;;;;;;30.50;10.60;;;;;;;7.53;74.24;99086.72;125651;1099;104434;-78
2021/03/16 01:07:00;;;;;;;21.30;8.20;;;;;;;7.45;74.01;99083.05;125887;1099;104188;-78
2021/03/16 01:09:30;;;;;;;25.03;8.80;;;;;;;7.35;74.20;99083.64;125983;1099;104165;-77
2021/03/16 01:11:59;;;;;;;27.27;8.87;;;;;;;7.28;74.19;99072.17;125987;1099;104354;-78
2021/03/16 01:14:28;;;;;;;19.10;7.53;;;;;;;7.17;74.44;99077.11;125795;1099;104175;-79
2021/03/16 01:16:57;;;;;;;21.20;7.60;;;;;;;7.09;74.30;99075.12;125703;1099;104216;-79
2021/03/16 01:19:26;;;;;;;25.57;8.30;;;;;;;7.05;74.54;99079.39;125688;1096;104262;-78
2021/03/16 01:21:56;;;;;;;20.60;7.67;;;;;;;7.00;74.52;99081.00;125774;1096;104169;-78
2021/03/16 01:24:25;;;;;;;20.57;7.83;;;;;;;6.88;74.65;99076.31;125658;1099;104165;-78
2021/03/16 01:26:54;;;;;;;26.57;8.40;;;;;;;6.81;74.48;99077.01;125684;1096;104210;-78
2021/03/16 01:29:23;;;;;;;20.50;8.60;;;;;;;6.75;74.56;99072.49;125601;1099;104354;-78
2021/03/16 01:31:52;;;;;;;19.63;7.83;;;;;;;6.74;74.78;99077.66;125667;1099;105448;-77
2021/03/16 01:34:21;;;;;;;24.03;8.10;;;;;;;6.71;74.74;99083.66;125680;1097;104166;-78
2021/03/16 01:36:51;;;;;;;23.03;8.00;;;;;;;6.67;74.60;99076.62;125605;1099;104188;-77
2021/03/16 01:39:21;;;;;;;23.03;9.07;;;;;;;6.66;74.72;99082.66;125655;1097;104342;-77
2021/03/16 01:41:50;;;;;;;23.10;8.77;;;;;;;6.70;75.07;99084.53;125685;1096;104232;-78
2021/03/16 01:44:18;;;;;;;29.57;9.93;;;;;;;6.78;74.86;99087.35;125713;1096;104204;-78
2021/03/16 01:46:47;;;;;;;30.70;11.43;;;;;;;6.83;75.25;99083.14;125643;1099;104172;-78
2021/03/16 01:49:16;;;;;;;24.73;10.53;;;;;;;6.85;74.82;99091.88;125643;1099;104194;-78
2021/03/16 01:51:45;;;;;;;25.37;9.70;;;;;;;6.80;74.77;99096.09;125677;1099;104174;-77
2021/03/16 01:54:14;;;;;;;24.47;9.83;;;;;;;6.75;74.82;99093.35;125616;1099;104232;-77
2021/03/16 01:56:46;;;;;;;26.63;9.87;;;;;;;6.74;75.42;99096.78;125639;1099;105454;-78
2021/03/16 01:59:30;;;;;;;31.70;10.50;;;;;;;6.74;74.97;99095.91;125697;1099;104255;-77
2021/03/16 02:02:10;;;;;;;24.37;9.00;;;;;;;6.75;75.16;99095.95;125705;1099;104162;-78
2021/03/16 02:04:50;;;;;;;21.97;8.80;;;;;;;6.81;75.11;99093.52;125686;1100;104309;-78
2021/03/16 02:07:33;;;;;;;32.33;10.50;;;;;;;6.87;75.04;99091.92;125649;1099;104268;-78
2021/03/16 02:10:28;;;;;;;31.30;10.90;;;;;;;6.91;75.17;99096.39;125673;1098;104189;-77
2021/03/16 02:13:17;;;;;;;24.17;8.73;;;;;;;6.90;75.10;99092.88;125666;1099;104638;-78
2021/03/16 02:16:04;;;;;;;25.13;8.87;;;;;;;6.81;74.75;99092.66;125696;1099;104208;-77
2021/03/16 02:18:53;;;;;;;21.40;8.33;;;;;;;6.74;74.82;99093.31;125619;1099;118897;-77
2021/03/16 02:21:41;;;;;;;23.30;9.23;;;;;;;6.65;74.86;99092.22;125654;1098;104171;-78
2021/03/16 02:24:38;;;;;;;23.03;9.03;;;;;;;6.61;75.17;99092.08;125670;1099;104267;-77
2021/03/16 02:27:24;;;;;;;26.03;9.20;;;;;;;6.65;75.05;99091.31;125644;1099;104217;-77
2021/03/16 02:30:12;;;;;;;23.23;8.70;;;;;;;6.64;75.03;99090.44;125664;1096;104296;-77
2021/03/16 02:33:03;;;;;;;21.93;8.50;;;;;;;6.59;75.09;99088.52;125799;1096;104223;-78
2021/03/16 02:35:51;;;;;;;24.83;9.77;;;;;;;6.48;75.03;99077.78;125711;1099;104166;-77
2021/03/16 02:38:45;;;;;;;26.03;10.90;;;;;;;6.41;75.17;99084.55;125626;1099;104644;-77
2021/03/16 02:41:33;;;;;;;25.80;10.10;;;;;;;6.40;75.72;99082.77;125649;1099;104200;-76
2021/03/16 02:44:22;;;;;;;25.07;9.80;;;;;;;6.40;75.37;99067.13;125670;1099;104299;-78
2021/03/16 02:47:12;;;;;;;26.17;10.23;;;;;;;6.36;75.60;99065.30;125661;1099;104249;-78
2021/03/16 02:50:01;;;;;;;22.87;9.70;;;;;;;6.38;75.64;99073.16;125602;1097;107028;-77
2021/03/16 02:52:51;;;;;;;22.47;9.50;;;;;;;6.32;75.73;99073.85;125708;1096;104227;-77
2021/03/16 02:55:31;;;;;;;21.87;9.40;;;;;;;6.28;75.75;99074.62;125661;1096;104284;-77
2021/03/16 02:58:11;;;;;;;23.70;9.77;;;;;;;6.23;75.60;99077.09;125650;1097;104169;-78
2021/03/16 03:00:51;;;;;;;20.93;8.47;;;;;;;6.19;75.57;99066.53;125668;1099;105439;-77
2021/03/16 03:03:31;;;;;;;23.63;9.17;;;;;;;6.07;75.84;99057.48;125662;1097;104628;-77
2021/03/16 03:06:12;;;;;;;25.77;9.33;;;;;;;6.03;76.04;99058.25;125676;1099;104174;-77
2021/03/16 03:09:02;;;;;;;27.50;10.30;;;;;;;6.07;76.10;99062.69;125650;1099;104168;-78
2021/03/16 03:11:50;;;;;;;24.40;9.47;;;;;;;6.11;76.27;99077.59;125644;1097;104204;-78
2021/03/16 03:14:31;;;;;;;25.67;10.57;;;;;;;6.19;76.46;99075.22;125639;1099;104178;-77
2021/03/16 03:17:20;;;;;;;24.00;10.50;;;;;;;6.18;76.05;99070.83;125609;1099;104169;-76
2021/03/16 03:20:09;;;;;;;27.00;10.27;;;;;;;6.19;76.26;99066.53;125603;1096;104174;-77
2021/03/16 03:23:02;;;;;;;26.07;10.20;;;;;;;6.14;76.25;99062.87;125679;1099;104171;-76
2021/03/16 03:25:56;;;;;;;23.83;10.53;;;;;;;6.09;76.10;99057.53;125688;1099;104165;-76
2021/03/16 03:28:43;;;;;;;23.60;10.13;;;;;;;6.09;76.13;99062.73;125612;1099;104169;-76
2021/03/16 03:31:37;;;;;;;30.70;12.80;;;;;;;6.07;76.13;99057.48;125596;1099;104220;-77
2021/03/16 03:34:22;;;;;;;26.37;12.10;;;;;;;6.05;76.53;99053.95;125616;1096;104184;-76
2021/03/16 03:37:12;;;;;;;25.30;11.50;;;;;;;6.02;76.09;99039.97;125617;1099;104168;-76
2021/03/16 03:40:03;;;;;;;28.93;11.33;;;;;;;5.92;76.17;99038.75;125610;1099;104207;-76
2021/03/16 03:42:52;;;;;;;28.93;11.63;;;;;;;5.82;76.53;99034.98;125667;1098;104168;-76
2021/03/16 03:45:43;;;;;;;24.03;10.57;;;;;;;5.73;76.37;99013.88;125625;1099;104296;-76
2021/03/16 03:48:31;;;;;;;25.53;10.97;;;;;;;5.63;76.32;99015.31;125668;1099;104169;-75
2021/03/16 03:51:15;;;;;;;28.87;13.10;;;;;;;5.60;76.59;99022.15;125632;1099;112032;-76
2021/03/16 03:54:04;;;;;;;26.97;11.63;;;;;;;5.65;76.62;99047.47;125702;1096;104174;-77
2021/03/16 03:56:51;;;;;;;23.70;10.60;;;;;;;5.76;76.82;99059.12;125680;1098;104175;-77
2021/03/16 03:59:44;;;;;;;23.53;9.63;;;;;;;5.82;77.08;99063.62;125527;1099;104181;-77
2021/03/16 04:02:31;;;;;;;21.27;9.37;;;;;;;5.85;76.74;99065.45;125627;1099;104294;-78
2021/03/16 04:05:14;;;;;;;27.03;9.53;;;;;;;5.87;76.98;99053.35;125642;1099;104171;-77
2021/03/16 04:08:02;;;;;;;23.70;9.50;;;;;;;5.96;76.70;99063.18;125683;1099;104166;-78
2021/03/16 04:10:50;;;;;;;24.53;10.17;;;;;;;5.99;76.73;99071.99;125632;1099;104281;-77
2021/03/16 04:13:31;;;;;;;23.63;9.57;;;;;;;6.00;76.84;99072.87;125649;1096;104197;-77
2021/03/16 04:16:11;;;;;;;26.20;10.13;;;;;;;6.05;77.19;99079.13;125665;1096;104287;-77
2021/03/16 04:18:51;;;;;;;27.47;9.73;;;;;;;6.11;77.04;99077.59;125653;1097;104168;-77
2021/03/16 04:21:41;;;;;;;26.07;11.10;;;;;;;6.14;77.11;99083.71;125663;1099;104166;-78
2021/03/16 04:24:22;;;;;;;27.50;11.47;;;;;;;6.17;77.12;99087.31;125667;1099;104278;-75
2021/03/16 04:27:11;;;;;;;25.30;11.23;;;;;;;6.20;76.86;99081.30;125612;1099;104398;-75
2021/03/16 04:29:50;;;;;;;24.97;11.30;;;;;;;6.23;77.06;99095.32;125620;1099;104162;-75
2021/03/16 04:32:30;;;;;;;24.73;10.87;;;;;;;6.27;76.85;99096.28;125643;1099;104172;-75
2021/03/16 04:35:11;;;;;;;25.50;10.77;;;;;;;6.32;76.97;99080.80;125650;1099;104245;-75
2021/03/16 04:37:50;;;;;;;26.00;10.53;;;;;;;6.34;77.08;99072.16;125665;1099;104217;-76
2021/03/16 04:40:31;;;;;;;22.50;10.83;;;;;;;6.37;76.91;99063.56;125660;1099;104236;-75
2021/03/16 04:43:11;;;;;;;24.87;10.33;;;;;;;6.41;76.90;99068.91;125686;1099;104178;-75
2021/03/16 04:45:50;;;;;;;22.17;10.27;;;;;;;6.45;77.08;99082.91;125672;1097;104245;-75
2021/03/16 04:48:30;;;;;;;26.60;10.40;;;;;;;6.48;76.89;99081.30;125682;1099;104278;-75
2021/03/16 04:51:10;;;;;;;25.27;10.63;;;;;;;6.56;77.31;99088.44;125667;1099;104290;-75
2021/03/16 04:53:50;;;;;;;25.23;10.67;;;;;;;6.57;77.06;99096.30;125614;1096;104181;-75
2021/03/16 04:56:30;;;;;;;27.47;10.30;;;;;;;6.60;77.07;99098.99;125665;1096;104166;-75
2021/03/16 04:59:10;;;;;;;25.70;10.60;;;;;;;6.60;77.26;99101.60;125714;1099;104172;-77
2021/03/16 05:01:50;;;;;;;26.33;11.27;;;;;;;6.58;77.03;99100.68;125713;1099;105406;-76
2021/03/16 05:04:30;;;;;;;21.50;10.27;;;;;;;6.61;77.03;99102.50;125648;1099;104178;-76
2021/03/16 05:07:10;;;;;;;25.47;10.43;;;;;;;6.66;76.84;99100.91;125627;1099;104281;-76
2021/03/16 05:09:50;;;;;;;26.10;10.23;;;;;;;6.63;76.66;99093.00;125696;1099;104194;-76
2021/03/16 05:12:30;;;;;;;25.43;10.90;;;;;;;6.61;76.59;99095.56;125715;1099;104155;-76
2021/03/16 05:15:12;;;;;;;24.57;10.30;;;;;;;6.64;76.58;99092.17;125670;1096;104168;-76
2021/03/16 05:18:02;;;;;;;23.53;10.27;;;;;;;6.63;76.40;99088.66;125638;1099;104171;-75
2021/03/16 05:20:51;;;;;;;22.70;9.77;;;;;;;6.62;76.62;99080.80;125665;1096;104224;-76
2021/03/16 05:23:31;;;;;;;28.77;11.57;;;;;;;6.57;76.59;99071.97;125668;1100;104290;-77
2021/03/16 05:26:10;;;;;;;27.60;11.20;;;;;;;6.55;76.87;99069.31;125614;1097;104172;-76
2021/03/16 05:28:51;;;;;;;34.13;17.23;;;;;;;6.58;76.71;99072.02;125672;1099;104178;-76
2021/03/16 05:31:30;;;;;;;42.23;19.60;;;;;;;6.60;76.69;99069.45;125563;1099;104318;-77
2021/03/16 05:34:11;;;;;;;35.73;16.10;;;;;;;6.63;76.74;99059.11;125565;1096;104242;-76
2021/03/16 05:36:50;;;;;;;32.57;15.87;;;;;;;6.63;76.60;99046.08;125679;1098;104192;-76
2021/03/16 05:39:30;;;;;;;51.70;29.83;;;;;;;6.65;76.76;99052.21;125956;1097;104222;-76
2021/03/16 05:42:11;;;;;;;51.13;29.43;;;;;;;6.64;76.43;99046.13;125841;1099;104169;-76
2021/03/16 05:44:54;;;;;;;37.65;20.25;;;;;;;6.66;76.59;99041.83;125801;1099;104306;-76
2021/03/16 05:47:43;;;;;;;38.33;19.70;;;;;;;6.69;76.51;99037.56;125577;1099;104360;-76
2021/03/16 05:50:30;;;;;;;32.13;14.77;;;;;;;6.73;76.46;99032.48;125683;1099;104168;-76
2021/03/16 05:53:11;;;;;;;34.57;15.50;;;;;;;6.72;76.31;99027.22;125614;1097;104287;-76
2021/03/16 05:55:51;;;;;;;30.03;14.33;;;;;;;6.70;76.36;99028.88;125640;1099;104169;-77
2021/03/16 05:58:31;;;;;;;32.10;13.47;;;;;;;6.64;76.08;99022.66;125623;1096;104294;-76
2021/03/16 06:01:13;;;;;;;26.87;12.17;;;;;;;6.61;76.37;99011.28;125630;1096;104293;-76
2021/03/16 06:04:03;;;;;;;23.50;11.93;;;;;;;6.60;76.38;99007.77;125609;1099;104159;-76
2021/03/16 06:06:50;;;;;;;23.70;10.80;;;;;;;6.61;76.26;99026.92;125628;1099;104171;-76
2021/03/16 06:09:30;;;;;;;25.20;11.43;;;;;;;6.67;76.58;99029.70;125646;1099;104169;-76
2021/03/16 06:12:11;;;;;;;24.97;12.13;;;;;;;6.65;76.31;99034.87;125603;1099;104173;-77
2021/03/16 06:14:50;;;;;;;24.37;11.97;;;;;;;6.61;76.10;99040.83;125630;1098;104360;-76
2021/03/16 06:17:31;;;;;;;27.33;11.77;;;;;;;6.57;76.15;99033.75;125595;1099;104319;-76
2021/03/16 06:20:13;;;;;;;28.57;13.03;;;;;;;6.52;76.04;99034.48;125638;1096;104168;-77
2021/03/16 06:23:07;;;;;;;27.55;12.45;;;;;;;6.51;76.43;99035.30;125635;1099;104200;-76
2021/03/16 06:25:50;;;;;;;33.27;15.00;;;;;;;6.48;76.09;99029.17;125642;1099;104158;-76
2021/03/16 06:28:35;;;;;;;30.37;14.73;;;;;;;6.52;76.29;99029.27;125586;1099;104184;-77
2021/03/16 06:31:25;;;;;;;40.47;18.30;;;;;;;6.53;76.08;99041.44;125635;1099;104284;-77
2021/03/16 06:34:20;;;;;;;35.23;17.10;;;;;;;6.69;76.40;99054.08;125564;1099;105639;-78
2021/03/16 06:37:03;;;;;;;32.50;15.73;;;;;;;6.86;76.17;99053.64;125656;1096;104165;-77
2021/03/16 06:39:57;;;;;;;28.50;14.77;;;;;;;7.04;76.21;99042.83;125667;1099;104643;-76
2021/03/16 06:42:41;;;;;;;25.07;12.50;;;;;;;7.19;76.10;99038.02;125579;1099;104284;-77
2021/03/16 06:45:31;;;;;;;26.33;12.80;;;;;;;7.31;76.00;99034.85;125642;1099;104156;-76
2021/03/16 06:48:16;;;;;;;24.80;11.37;;;;;;;7.36;75.64;99028.02;125614;1099;104177;-77
2021/03/16 06:51:10;;;;;;;29.77;12.03;;;;;;;7.35;74.96;99021.92;125649;1099;104294;-77
2021/03/16 06:53:50;;;;;;;25.27;11.90;;;;;;;7.44;75.42;99016.02;125631;1096;103045;-77
2021/03/16 06:56:31;;;;;;;27.70;11.27;;;;;;;7.59;75.03;99018.13;125644;1098;104290;-77
2021/03/16 06:59:21;;;;;;;25.23;12.00;;;;;;;7.73;75.58;99021.95;125665;1096;104267;-77
2021/03/16 07:02:12;;;;;;;25.37;11.57;;;;;;;7.84;74.61;99035.25;125639;1096;104150;-77
2021/03/16 07:05:01;;;;;;;24.77;12.40;;;;;;;7.82;74.77;99042.18;125681;1099;104211;-77
2021/03/16 07:07:44;;;;;;;25.10;11.53;;;;;;;7.85;74.64;99038.73;125660;1099;104284;-77
2021/03/16 07:10:31;;;;;;;24.53;11.83;;;;;;;7.90;74.77;99029.30;125621;1097;104213;-77
2021/03/16 07:13:12;;;;;;;21.87;10.83;;;;;;;7.99;74.59;99041.67;125653;1099;104169;-77
2021/03/16 07:15:52;;;;;;;26.67;13.67;;;;;;;7.96;74.19;99033.77;125580;1099;111019;-77
2021/03/16 07:18:43;;;;;;;27.20;12.83;;;;;;;7.96;73.85;99038.98;125671;1096;104235;-78
2021/03/16 07:21:37;;;;;;;27.23;13.03;;;;;;;8.12;74.69;99037.59;125655;1096;104269;-78
2021/03/16 07:24:24;;;;;;;27.40;12.33;;;;;;;8.35;74.51;99033.77;125585;1099;104398;-78
2021/03/16 07:27:11;;;;;;;26.60;12.33;;;;;;;8.42;73.88;99042.61;125620;1099;104174;-78
2021/03/16 07:29:52;;;;;;;23.67;12.10;;;;;;;8.34;73.43;99039.83;125616;1098;104231;-77
2021/03/16 07:32:43;;;;;;;27.33;12.73;;;;;;;8.28;73.89;99045.80;125611;1099;104817;-77
2021/03/16 07:35:35;;;;;;;25.20;13.10;;;;;;;8.23;73.52;99031.77;125605;1096;104305;-77
2021/03/16 07:38:25;;;;;;;26.70;12.87;;;;;;;8.19;73.77;99029.92;125599;1096;104296;-78
2021/03/16 07:41:12;;;;;;;24.30;12.37;;;;;;;8.21;73.48;99028.24;125612;1098;104159;-77
2021/03/16 07:44:06;;;;;;;26.70;13.73;;;;;;;8.26;74.10;99029.22;125602;1099;104355;-79
2021/03/16 07:47:08;;;;;;;29.13;13.90;;;;;;;8.35;74.39;99030.25;125573;1099;104181;-77
2021/03/16 07:50:08;;;;;;;28.30;14.03;;;;;;;8.45;73.63;99035.73;125493;1099;104895;-77
2021/03/16 07:52:54;;;;;;;26.95;13.45;;;;;;;8.52;74.11;99039.34;125569;1099;104280;-78
2021/03/16 07:55:42;;;;;;;25.53;11.70;;;;;;;8.61;73.51;99033.44;125650;1099;104166;-78
2021/03/16 07:58:29;;;;;;;24.93;13.30;;;;;;;8.63;72.98;99024.78;125605;1099;104181;-78
2021/03/16 08:01:12;;;;;;;29.30;13.57;;;;;;;8.68;72.82;99023.97;125625;1099;104171;-78
2021/03/16 08:04:12;;;;;;;29.97;13.97;;;;;;;8.70;72.70;99011.83;125596;1099;104181;-78
2021/03/16 08:07:03;;;;;;;28.57;14.07;;;;;;;8.83;73.73;99008.58;125599;1099;104309;-77
2021/03/16 08:09:55;;;;;;;29.40;14.03;;;;;;;8.97;73.47;99000.98;125649;1099;104159;-78
2021/03/16 08:12:41;;;;;;;26.83;13.73;;;;;;;9.10;73.02;98996.84;125652;1099;104293;-78
2021/03/16 08:15:23;;;;;;;25.83;13.50;;;;;;;9.30;73.56;98989.33;125647;1099;105256;-78
2021/03/16 08:18:12;;;;;;;29.77;13.73;;;;;;;9.57;73.20;98988.91;125591;1099;104340;-78
2021/03/16 08:21:14;;;;;;;28.30;15.10;;;;;;;9.71;72.85;98971.66;125593;1099;104348;-78
2021/03/16 08:24:06;;;;;;;30.80;14.13;;;;;;;9.89;72.28;98970.16;125654;1099;104172;-78
2021/03/16 08:26:57;;;;;;;27.23;13.90;;;;;;;10.08;72.65;98987.90;125620;1097;104299;-77
2021/03/16 08:29:44;;;;;;;29.20;14.10;;;;;;;10.14;72.02;98967.86;125660;1098;104161;-78
2021/03/16 08:32:32;;;;;;;28.77;13.67;;;;;;;10.30;71.85;98958.44;125645;1099;104234;-78
2021/03/16 08:35:17;;;;;;;26.93;13.23;;;;;;;10.41;71.54;98954.27;125590;1099;104331;-78
2021/03/16 08:38:09;;;;;;;26.47;13.00;;;;;;;10.55;71.59;98949.14;125627;1099;104197;-77
2021/03/16 08:41:06;;;;;;;24.30;13.10;;;;;;;10.47;70.56;98951.71;125633;1099;104170;-77
2021/03/16 08:43:52;;;;;;;24.20;12.10;;;;;;;10.46;68.74;98954.31;125573;1098;104169;-77
2021/03/16 08:46:33;;;;;;;25.43;12.03;;;;;;;10.38;69.52;98941.98;125641;1097;104162;-76
2021/03/16 08:49:23;;;;;;;26.27;13.37;;;;;;;10.33;70.48;98948.92;125551;1099;104190;-77
2021/03/16 08:52:22;;;;;;;28.53;14.40;;;;;;;10.29;70.20;98943.59;125635;1099;104175;-77
2021/03/16 08:55:28;;;;;;;25.70;13.17;;;;;;;10.28;70.53;98940.07;125610;1099;104162;-79
2021/03/16 08:58:12;;;;;;;26.63;12.97;;;;;;;10.35;70.69;98928.84;125577;1099;104211;-78
2021/03/16 09:00:54;;;;;;;26.00;12.93;;;;;;;10.43;70.72;98929.80;125634;1098;104173;-77
2021/03/16 09:03:42;;;;;;;22.37;11.17;;;;;;;10.43;70.06;98921.92;125579;1099;104236;-76
2021/03/16 09:06:31;;;;;;;26.87;12.60;;;;;;;10.43;68.70;98932.41;125607;1099;104207;-77
2021/03/16 09:09:13;;;;;;;24.27;12.77;;;;;;;10.40;69.19;98926.27;125615;1099;104288;-77
2021/03/16 09:12:01;;;;;;;23.90;11.10;;;;;;;10.35;68.80;98920.97;125576;1099;104158;-77
2021/03/16 09:14:41;;;;;;;22.73;11.63;;;;;;;10.43;69.44;98928.92;125557;1099;104258;-76
2021/03/16 09:17:24;;;;;;;26.17;12.23;;;;;;;10.43;66.27;98921.06;125575;1099;104297;-77
2021/03/16 09:20:14;;;;;;;25.27;12.47;;;;;;;10.43;67.96;98916.69;125620;1099;104181;-77
2021/03/16 09:23:04;;;;;;;26.50;12.60;;;;;;;10.44;68.04;98922.83;125664;1099;104285;-76
2021/03/16 09:25:54;;;;;;;25.07;12.63;;;;;;;10.48;67.67;98924.59;125677;1099;104166;-76
2021/03/16 09:28:41;;;;;;;25.10;12.43;;;;;;;10.51;67.90;98934.25;125618;1099;104315;-76
2021/03/16 09:31:23;;;;;;;27.80;13.50;;;;;;;10.48;67.79;98924.59;125580;1099;104217;-76
2021/03/16 09:34:13;;;;;;;26.60;13.13;;;;;;;10.53;68.54;98922.03;125597;1099;104163;-78
2021/03/16 09:37:05;;;;;;;29.50;14.23;;;;;;;10.58;68.04;98933.44;125626;1097;104172;-76
2021/03/16 09:39:51;;;;;;;26.30;12.87;;;;;;;10.52;67.90;98938.65;125678;1096;104238;-76
2021/03/16 09:42:34;;;;;;;24.83;13.53;;;;;;;10.50;68.30;98925.52;125569;1099;104212;-78
2021/03/16 09:45:14;;;;;;;27.00;13.50;;;;;;;10.54;67.91;98940.41;125620;1096;104162;-78
2021/03/16 09:47:44;;;;;;;27.60;14.43;;;;;;;10.53;67.50;98938.66;125610;1099;104335;-79
2021/03/16 09:50:19;;;;;;;27.17;14.43;;;;;;;10.57;67.83;98939.56;125613;1098;104210;-76
2021/03/16 09:52:49;;;;;;;26.23;13.10;;;;;;;10.58;67.97;98936.06;125586;1099;104293;-77
2021/03/16 09:55:19;;;;;;;29.00;14.30;;;;;;;10.64;68.13;98940.50;125618;1097;104166;-78
2021/03/16 09:57:49;;;;;;;26.70;13.75;;;;;;;10.81;67.84;98922.31;125610;1099;105531;-77
2021/03/16 10:00:21;;;;;;;25.13;12.30;;;;;;;10.94;67.82;98926.82;125625;1099;104318;-76
2021/03/16 10:03:02;;;;;;;30.37;14.10;;;;;;;11.06;68.15;98928.65;125665;1099;104174;-76
2021/03/16 10:05:37;;;;;;;28.17;14.63;;;;;;;11.25;67.55;98932.30;125472;1098;104195;-77
2021/03/16 10:08:10;;;;;;;25.47;13.53;;;;;;;11.40;67.62;98921.91;125009;1099;104348;-76
2021/03/16 10:10:39;;;;;;;25.30;14.10;;;;;;;11.50;67.36;98929.00;124886;1099;104181;-76
2021/03/16 10:13:10;;;;;;;23.97;12.90;;;;;;;11.49;67.37;98940.36;124919;1099;104172;-76
2021/03/16 10:15:41;;;;;;;26.13;12.93;;;;;;;11.57;67.70;98929.04;124936;1099;104344;-76
2021/03/16 10:18:13;;;;;;;29.57;14.27;;;;;;;11.71;67.92;98927.37;124979;1099;104006;-76
2021/03/16 10:20:46;;;;;;;28.03;14.30;;;;;;;11.77;67.43;98929.16;126317;1093;104412;-75
2021/03/16 10:23:20;;;;;;;24.10;12.53;;;;;;;11.76;67.26;98936.15;125125;1102;104434;-76
2021/03/16 10:25:56;;;;;;;22.77;13.03;;;;;;;11.73;66.64;98927.37;125033;1102;104213;-78
2021/03/16 10:28:34;;;;;;;25.90;13.57;;;;;;;11.79;66.26;98928.28;125060;1100;104764;-76
2021/03/16 10:31:15;;;;;;;26.80;14.43;;;;;;;11.93;66.89;98924.89;125092;1102;104194;-77
2021/03/16 10:33:44;;;;;;;26.10;13.33;;;;;;;12.02;66.72;98919.69;125116;1102;104280;-77
2021/03/16 10:36:15;;;;;;;27.77;13.03;;;;;;;12.09;66.26;98913.59;125033;1102;104329;-76
2021/03/16 10:38:48;;;;;;;25.43;13.20;;;;;;;12.19;66.73;98912.73;125069;1099;104194;-78
2021/03/16 10:41:18;;;;;;;20.10;9.80;;;;;;;12.31;66.18;98911.91;125953;1099;104173;-78
2021/03/16 10:43:48;;;;;;;25.73;12.80;;;;;;;12.27;65.35;98904.88;125967;1099;104153;-78
2021/03/16 10:46:17;;;;;;;23.00;11.83;;;;;;;12.25;64.33;98892.58;125260;1099;104642;-78
2021/03/16 10:48:46;;;;;;;24.40;12.33;;;;;;;12.27;64.40;98889.09;125763;1099;104380;-79
2021/03/16 10:51:15;;;;;;;25.00;11.50;;;;;;;12.29;65.21;98883.84;125898;1099;104204;-79
2021/03/16 10:53:49;;;;;;;24.97;12.43;;;;;;;12.36;65.76;98889.13;125828;1098;104184;-79
2021/03/16 10:56:18;;;;;;;24.67;12.87;;;;;;;12.40;65.06;98882.11;125811;1099;104239;-79
2021/03/16 10:58:49;;;;;;;24.50;12.57;;;;;;;12.45;65.16;98875.13;125877;1099;104274;-78
2021/03/16 11:01:20;;;;;;;28.07;13.13;;;;;;;12.53;65.29;98886.53;125823;1099;104302;-77
2021/03/16 11:03:57;;;;;;;24.70;12.47;;;;;;;12.63;65.39;98883.92;125660;1099;104803;-77
2021/03/16 11:06:27;;;;;;;27.97;13.33;;;;;;;12.71;65.53;98885.67;124911;1099;104338;-77
2021/03/16 11:08:58;;;;;;;24.03;12.40;;;;;;;12.84;65.42;98878.69;124865;1099;104332;-75
2021/03/16 11:11:49;;;;;;;25.67;12.63;;;;;;;13.03;65.31;98876.06;124906;1102;104247;-78
2021/03/16 11:14:19;;;;;;;23.50;12.43;;;;;;;13.21;65.40;98873.38;126196;1101;102193;-76
2021/03/16 11:16:50;;;;;;;23.80;12.30;;;;;;;13.33;65.02;98874.27;125322;1102;104310;-77
2021/03/16 11:19:23;;;;;;;24.40;11.00;;;;;;;13.43;64.83;98873.39;124891;1102;104345;-76
2021/03/16 11:21:53;;;;;;;23.57;11.73;;;;;;;13.52;64.99;98870.73;125012;1099;104162;-77
2021/03/16 11:24:22;;;;;;;27.30;12.60;;;;;;;13.54;64.53;98871.64;124919;1099;104275;-77
2021/03/16 11:26:51;;;;;;;24.60;12.57;;;;;;;13.53;64.41;98871.64;124961;1102;104175;-77
2021/03/16 11:29:20;;;;;;;25.30;12.97;;;;;;;13.52;64.97;98872.50;124995;1099;104188;-78
2021/03/16 11:31:53;;;;;;;21.63;11.30;;;;;;;13.53;64.64;98871.64;124971;1101;104144;-77
2021/03/16 11:34:41;;;;;;;22.07;12.37;;;;;;;13.52;64.42;98865.47;124956;1102;104303;-77
2021/03/16 11:37:30;;;;;;;22.93;12.50;;;;;;;13.51;64.64;98858.47;125148;1099;104226;-77
2021/03/16 11:40:22;;;;;;;20.60;10.47;;;;;;;13.52;63.97;98844.39;125334;1099;104694;-77
2021/03/16 11:43:02;;;;;;;21.23;10.10;;;;;;;13.62;64.32;98834.72;125983;1099;104150;-77
2021/03/16 11:45:44;;;;;;;22.17;10.97;;;;;;;13.74;64.11;98824.10;126049;1099;104692;-77
2021/03/16 11:48:39;;;;;;;20.30;9.83;;;;;;;13.90;63.91;98827.58;125972;1099;104169;-77
2021/03/16 11:51:26;;;;;;;16.30;8.57;;;;;;;14.07;63.26;98813.41;125867;1099;104705;-76
2021/03/16 11:54:18;;;;;;;19.17;9.07;;;;;;;14.19;61.75;98808.06;125889;1099;104226;-77
2021/03/16 11:57:09;;;;;;;19.00;8.03;;;;;;;14.29;62.50;98812.41;125923;1099;104241;-76
2021/03/16 11:59:52;;;;;;;19.77;9.37;;;;;;;14.35;60.36;98801.82;125812;1099;104172;-77
2021/03/16 12:02:32;;;;;;;21.43;9.60;;;;;;;14.33;60.47;98802.70;125767;1099;104249;-77
2021/03/16 12:05:14;;;;;;;18.93;9.60;;;;;;;14.36;61.77;98798.27;125880;1099;104195;-77
2021/03/16 12:08:02;;;;;;;19.33;9.20;;;;;;;14.37;58.91;98800.03;125848;1099;104181;-77
2021/03/16 12:10:41;;;;;;;20.57;11.17;;;;;;;14.37;60.33;98800.03;125840;1099;104156;-77
2021/03/16 12:13:22;;;;;;;21.23;9.47;;;;;;;14.39;59.86;98798.25;125825;1099;104156;-77